Leathersville, Georgia
Current Conditions -  °F | °C
As of 9:15 AM on Thursday 29 Jan 2015 (Local Time) from KHQU Reporting Station
Clear Clear  
Wind Chill: 41°   Ceiling: Unl
Heat Index: 41°   Visibility: 10mi
Dew Point: 30°   Wind: 0mph
Humidity: 64%   Direction: NA
Pressure: 30.38"   Gusts: NA
Location:  33.7816°N, 82.4511°W
Report Text: KHQU 291415Z AUTO 00000KT 10SM CLR 05/M01 A3038 RMK AO1 T00511013
Loading
Personal Weather Stations






























Interactive Weather Map New forecast layout! Learn more

10-Day Weather Forecast

Advertisements
Track Severe Weather on mobile